sensor_id;sensor_type;location;lat;lon;timestamp;pressure;altitude;pressure_sealevel;temperature;humidity
8069;BME280;4077;43.702;24.896;2023-04-02T00:01:42;98307.88;;;9.83;100.00
8069;BME280;4077;43.702;24.896;2023-04-02T00:04:22;98318.13;;;9.93;100.00
8069;BME280;4077;43.702;24.896;2023-04-02T00:06:49;98306.19;;;9.76;100.00
8069;BME280;4077;43.702;24.896;2023-04-02T00:09:28;98318.13;;;9.93;100.00
8069;BME280;4077;43.702;24.896;2023-04-02T00:11:55;98297.56;;;9.80;100.00
8069;BME280;4077;43.702;24.896;2023-04-02T00:14:32;98311.28;;;9.85;100.00
8069;BME280;4077;43.702;24.896;2023-04-02T00:17:00;98314.72;;;9.91;100.00
8069;BME280;4077;43.702;24.896;2023-04-02T00:19:40;98309.53;;;9.94;100.00
8069;BME280;4077;43.702;24.896;2023-04-02T00:22:15;98314.75;;;9.84;100.00
8069;BME280;4077;43.702;24.896;2023-04-02T00:24:45;98306.22;;;9.70;100.00
8069;BME280;4077;43.702;24.896;2023-04-02T00:27:12;98312.19;;;9.77;100.00
8069;BME280;4077;43.702;24.896;2023-04-02T00:29:47;98313.97;;;9.64;100.00
8069;BME280;4077;43.702;24.896;2023-04-02T00:32:20;98319.06;;;9.73;100.00
8069;BME280;4077;43.702;24.896;2023-04-02T00:34:47;98323.44;;;9.62;100.00
8069;BME280;4077;43.702;24.896;2023-04-02T00:37:19;98329.38;;;9.73;100.00
8069;BME280;4077;43.702;24.896;2023-04-02T00:39:49;98318.25;;;9.68;100.00
8069;BME280;4077;43.702;24.896;2023-04-02T00:42:15;98333.72;;;9.68;100.00
8069;BME280;4077;43.702;24.896;2023-04-02T00:44:43;98333.69;;;9.71;100.00
8069;BME280;4077;43.702;24.896;2023-04-02T00:49:42;98332.00;;;9.64;100.00
8069;BME280;4077;43.702;24.896;2023-04-02T00:52:11;98321.66;;;9.67;100.00
8069;BME280;4077;43.702;24.896;2023-04-02T00:57:26;98318.25;;;9.60;100.00
8069;BME280;4077;43.702;24.896;2023-04-02T01:02:26;98318.25;;;9.68;100.00
8069;BME280;4077;43.702;24.896;2023-04-02T01:04:58;98315.69;;;9.60;100.00
8069;BME280;4077;43.702;24.896;2023-04-02T01:07:39;98316.56;;;9.61;100.00
8069;BME280;4077;43.702;24.896;2023-04-02T01:15:17;98310.63;;;9.42;100.00
8069;BME280;4077;43.702;24.896;2023-04-02T01:17:59;98335.50;;;9.45;100.00
8069;BME280;4077;43.702;24.896;2023-04-02T01:29:00;98331.16;;;9.57;100.00
8069;BME280;4077;43.702;24.896;2023-04-02T01:31:27;98325.19;;;9.51;100.00
8069;BME280;4077;43.702;24.896;2023-04-02T01:33:55;98332.03;;;9.52;100.00
8069;BME280;4077;43.702;24.896;2023-04-02T01:41:47;98334.53;;;9.72;100.00
8069;BME280;4077;43.702;24.896;2023-04-02T01:47:17;98338.00;;;9.75;100.00
8069;BME280;4077;43.702;24.896;2023-04-02T01:49:44;98349.09;;;9.80;100.00
8069;BME280;4077;43.702;24.896;2023-04-02T01:52:32;98346.53;;;9.85;100.00
8069;BME280;4077;43.702;24.896;2023-04-02T01:54:59;98342.25;;;9.82;100.00
8069;BME280;4077;43.702;24.896;2023-04-02T01:57:26;98349.13;;;9.82;100.00
8069;BME280;4077;43.702;24.896;2023-04-02T01:59:53;98354.25;;;9.80;100.00
8069;BME280;4077;43.702;24.896;2023-04-02T02:02:19;98362.00;;;9.82;100.00
8069;BME280;4077;43.702;24.896;2023-04-02T02:04:46;98357.69;;;9.89;100.00
8069;BME280;4077;43.702;24.896;2023-04-02T02:07:14;98362.84;;;9.89;100.00
8069;BME280;4077;43.702;24.896;2023-04-02T02:09:41;98367.13;;;9.90;100.00
8069;BME280;4077;43.702;24.896;2023-04-02T02:12:10;98373.13;;;9.96;100.00
8069;BME280;4077;43.702;24.896;2023-04-02T02:14:38;98361.94;;;9.93;100.00
8069;BME280;4077;43.702;24.896;2023-04-02T02:17:06;98378.22;;;10.01;100.00
8069;BME280;4077;43.702;24.896;2023-04-02T02:19:43;98381.59;;;10.15;100.00
8069;BME280;4077;43.702;24.896;2023-04-02T02:22:29;98384.19;;;10.15;100.00
8069;BME280;4077;43.702;24.896;2023-04-02T02:24:57;98377.34;;;10.11;100.00
8069;BME280;4077;43.702;24.896;2023-04-02T02:33:04;98390.19;;;10.15;100.00
8069;BME280;4077;43.702;24.896;2023-04-02T02:35:40;98385.94;;;10.07;100.00
8069;BME280;4077;43.702;24.896;2023-04-02T02:40:39;98392.00;;;10.03;100.00
8069;BME280;4077;43.702;24.896;2023-04-02T02:43:10;98377.41;;;9.88;100.00
8069;BME280;4077;43.702;24.896;2023-04-02T02:45:37;98386.94;;;9.75;100.00
8069;BME280;4077;43.702;24.896;2023-04-02T02:48:10;98383.47;;;9.81;100.00
8069;BME280;4077;43.702;24.896;2023-04-02T02:50:37;98377.53;;;9.68;100.00
8069;BME280;4077;43.702;24.896;2023-04-02T02:53:19;98379.22;;;9.65;100.00
8069;BME280;4077;43.702;24.896;2023-04-02T02:55:46;98383.56;;;9.61;100.00
8069;BME280;4077;43.702;24.896;2023-04-02T02:58:17;98370.69;;;9.56;100.00
8069;BME280;4077;43.702;24.896;2023-04-02T03:00:43;98371.50;;;9.63;100.00
8069;BME280;4077;43.702;24.896;2023-04-02T03:03:13;98369.81;;;9.56;100.00
8069;BME280;4077;43.702;24.896;2023-04-02T03:05:40;98369.81;;;9.56;100.00
8069;BME280;4077;43.702;24.896;2023-04-02T03:08:13;98355.25;;;9.44;100.00
8069;BME280;4077;43.702;24.896;2023-04-02T03:11:04;98366.38;;;9.51;100.00
8069;BME280;4077;43.702;24.896;2023-04-02T03:13:36;98363.81;;;9.55;100.00
8069;BME280;4077;43.702;24.896;2023-04-02T03:27:25;98383.56;;;9.61;100.00
8069;BME280;4077;43.702;24.896;2023-04-02T03:32:50;98388.66;;;9.76;100.00
8069;BME280;4077;43.702;24.896;2023-04-02T03:35:23;98384.31;;;9.84;100.00
8069;BME280;4077;43.702;24.896;2023-04-02T03:37:58;98380.94;;;9.69;100.00
8069;BME280;4077;43.702;24.896;2023-04-02T03:40:28;98383.50;;;9.70;100.00
8069;BME280;4077;43.702;24.896;2023-04-02T03:43:10;98401.53;;;9.75;100.00
8069;BME280;4077;43.702;24.896;2023-04-02T03:45:41;98398.94;;;9.82;100.00
8069;BME280;4077;43.702;24.896;2023-04-02T03:48:15;98402.38;;;9.80;100.00
8069;BME280;4077;43.702;24.896;2023-04-02T03:50:49;98400.66;;;9.83;100.00
8069;BME280;4077;43.702;24.896;2023-04-02T03:53:17;98412.72;;;9.69;100.00
8069;BME280;4077;43.702;24.896;2023-04-02T03:55:46;98413.56;;;9.73;100.00
8069;BME280;4077;43.702;24.896;2023-04-02T04:01:08;98413.56;;;9.76;100.00
8069;BME280;4077;43.702;24.896;2023-04-02T04:03:44;98421.25;;;9.86;100.00
8069;BME280;4077;43.702;24.896;2023-04-02T04:06:41;98419.53;;;9.84;100.00
8069;BME280;4077;43.702;24.896;2023-04-02T04:11:36;98415.22;;;9.87;100.00
8069;BME280;4077;43.702;24.896;2023-04-02T04:14:14;98428.13;;;9.95;100.00
8069;BME280;4077;43.702;24.896;2023-04-02T04:21:42;98434.94;;;10.01;100.00
8069;BME280;4077;43.702;24.896;2023-04-02T04:24:18;98433.22;;;10.06;100.00
8069;BME280;4077;43.702;24.896;2023-04-02T04:29:32;98452.09;;;10.14;100.00
8069;BME280;4077;43.702;24.896;2023-04-02T04:32:34;98452.09;;;10.23;100.00
8069;BME280;4077;43.702;24.896;2023-04-02T04:35:23;98458.09;;;10.21;100.00
8069;BME280;4077;43.702;24.896;2023-04-02T04:37:56;98462.38;;;10.20;100.00
8069;BME280;4077;43.702;24.896;2023-04-02T04:40:35;98452.94;;;10.19;100.00
8069;BME280;4077;43.702;24.896;2023-04-02T04:43:08;98458.97;;;10.18;100.00
8069;BME280;4077;43.702;24.896;2023-04-02T04:45:40;98459.81;;;10.20;100.00
8069;BME280;4077;43.702;24.896;2023-04-02T04:48:14;98476.13;;;10.22;100.00
8069;BME280;4077;43.702;24.896;2023-04-02T04:53:16;98477.84;;;10.38;100.00
8069;BME280;4077;43.702;24.896;2023-04-02T04:55:46;98474.41;;;10.29;100.00
8069;BME280;4077;43.702;24.896;2023-04-02T04:58:32;98479.56;;;10.33;100.00
8069;BME280;4077;43.702;24.896;2023-04-02T05:01:11;98485.56;;;10.38;100.00
8069;BME280;4077;43.702;24.896;2023-04-02T05:03:45;98482.97;;;10.35;100.00
8069;BME280;4077;43.702;24.896;2023-04-02T05:09:00;98489.00;;;10.36;100.00
8069;BME280;4077;43.702;24.896;2023-04-02T05:11:39;98489.00;;;10.34;100.00
8069;BME280;4077;43.702;24.896;2023-04-02T05:14:22;98488.16;;;10.35;100.00
8069;BME280;4077;43.702;24.896;2023-04-02T05:19:28;98495.03;;;10.33;100.00
8069;BME280;4077;43.702;24.896;2023-04-02T05:32:47;98507.88;;;10.52;100.00
8069;BME280;4077;43.702;24.896;2023-04-02T05:35:19;98504.47;;;10.44;100.00
8069;BME280;4077;43.702;24.896;2023-04-02T05:37:49;98508.75;;;10.41;100.00
8069;BME280;4077;43.702;24.896;2023-04-02T05:40:26;98513.88;;;10.58;100.00
8069;BME280;4077;43.702;24.896;2023-04-02T05:42:56;98512.16;;;10.53;100.00
8069;BME280;4077;43.702;24.896;2023-04-02T05:45:35;98517.28;;;10.65;100.00
8069;BME280;4077;43.702;24.896;2023-04-02T05:48:12;98510.38;;;10.62;100.00
8069;BME280;4077;43.702;24.896;2023-04-02T05:50:43;98520.66;;;10.76;100.00
8069;BME280;4077;43.702;24.896;2023-04-02T05:55:49;98529.22;;;10.81;100.00
8069;BME280;4077;43.702;24.896;2023-04-02T05:58:25;98541.25;;;10.88;100.00
8069;BME280;4077;43.702;24.896;2023-04-02T06:00:55;98537.78;;;10.89;100.00
8069;BME280;4077;43.702;24.896;2023-04-02T06:09:02;98553.97;;;11.17;100.00
8069;BME280;4077;43.702;24.896;2023-04-02T06:11:38;98556.53;;;11.22;100.00
8069;BME280;4077;43.702;24.896;2023-04-02T06:14:10;98554.81;;;11.24;100.00
8069;BME280;4077;43.702;24.896;2023-04-02T06:16:36;98560.81;;;11.29;100.00
8069;BME280;4077;43.702;24.896;2023-04-02T06:19:09;98572.94;;;11.19;100.00
8069;BME280;4077;43.702;24.896;2023-04-02T06:21:44;98558.28;;;11.17;100.00
8069;BME280;4077;43.702;24.896;2023-04-02T06:24:11;98571.09;;;11.40;100.00
8069;BME280;4077;43.702;24.896;2023-04-02T06:26:40;98568.53;;;11.35;100.00
8069;BME280;4077;43.702;24.896;2023-04-02T06:29:30;98575.31;;;11.48;100.00
8069;BME280;4077;43.702;24.896;2023-04-02T06:32:04;98577.13;;;11.37;100.00
8069;BME280;4077;43.702;24.896;2023-04-02T06:34:31;98574.50;;;11.43;100.00
8069;BME280;4077;43.702;24.896;2023-04-02T06:36:58;98576.19;;;11.46;100.00
8069;BME280;4077;43.702;24.896;2023-04-02T06:39:26;98585.53;;;11.64;100.00
8069;BME280;4077;43.702;24.896;2023-04-02T06:41:59;98589.88;;;11.62;100.00
8069;BME280;4077;43.702;24.896;2023-04-02T06:44:30;98589.03;;;11.57;100.00
8069;BME280;4077;43.702;24.896;2023-04-02T06:46:59;98597.66;;;11.56;100.00
8069;BME280;4077;43.702;24.896;2023-04-02T06:52:01;98586.38;;;11.66;100.00
8069;BME280;4077;43.702;24.896;2023-04-02T06:54:28;98605.25;;;11.78;100.00
8069;BME280;4077;43.702;24.896;2023-04-02T06:56:54;98613.03;;;11.77;100.00
8069;BME280;4077;43.702;24.896;2023-04-02T06:59:20;98604.19;;;12.05;100.00
8069;BME280;4077;43.702;24.896;2023-04-02T07:01:58;98600.63;;;12.22;100.00
8069;BME280;4077;43.702;24.896;2023-04-02T07:04:25;98613.72;;;12.02;100.00
8069;BME280;4077;43.702;24.896;2023-04-02T07:06:51;98602.56;;;11.95;100.00
8069;BME280;4077;43.702;24.896;2023-04-02T07:09:17;98611.88;;;12.13;100.00
8069;BME280;4077;43.702;24.896;2023-04-02T07:11:43;98619.59;;;12.19;100.00
8069;BME280;4077;43.702;24.896;2023-04-02T07:14:12;98626.06;;;12.62;100.00
8069;BME280;4077;43.702;24.896;2023-04-02T07:16:38;98627.66;;;12.75;100.00
8069;BME280;4077;43.702;24.896;2023-04-02T07:19:05;98608.22;;;13.12;100.00
8069;BME280;4077;43.702;24.896;2023-04-02T07:21:31;98627.75;;;13.38;95.29
8069;BME280;4077;43.702;24.896;2023-04-02T07:23:56;98629.78;;;13.78;90.63
8069;BME280;4077;43.702;24.896;2023-04-02T07:26:25;98634.91;;;14.33;91.52
8069;BME280;4077;43.702;24.896;2023-04-02T07:28:52;98636.50;;;14.40;83.52
8069;BME280;4077;43.702;24.896;2023-04-02T07:31:21;98649.81;;;15.16;80.70
8069;BME280;4077;43.702;24.896;2023-04-02T07:33:49;98658.38;;;15.63;80.36
8069;BME280;4077;43.702;24.896;2023-04-02T07:36:17;98659.72;;;15.81;75.08
8069;BME280;4077;43.702;24.896;2023-04-02T07:38:43;98652.81;;;15.40;73.50
8069;BME280;4077;43.702;24.896;2023-04-02T07:41:09;98657.78;;;15.89;77.93
8069;BME280;4077;43.702;24.896;2023-04-02T07:43:35;98650.16;;;15.81;73.25
8069;BME280;4077;43.702;24.896;2023-04-02T07:46:01;98652.13;;;15.70;74.23
8069;BME280;4077;43.702;24.896;2023-04-02T07:48:27;98653.53;;;15.85;73.44
8069;BME280;4077;43.702;24.896;2023-04-02T07:50:52;98646.44;;;15.92;72.44
8069;BME280;4077;43.702;24.896;2023-04-02T07:55:52;98650.59;;;15.99;72.81
8069;BME280;4077;43.702;24.896;2023-04-02T07:58:17;98649.72;;;16.00;71.29
8069;BME280;4077;43.702;24.896;2023-04-02T08:00:43;98640.38;;;15.91;71.27
8069;BME280;4077;43.702;24.896;2023-04-02T08:03:09;98651.72;;;15.89;71.93
8069;BME280;4077;43.702;24.896;2023-04-02T08:05:37;98640.78;;;15.74;73.65
8069;BME280;4077;43.702;24.896;2023-04-02T08:08:02;98633.94;;;15.70;73.96
8069;BME280;4077;43.702;24.896;2023-04-02T08:10:27;98641.31;;;15.89;74.55
8069;BME280;4077;43.702;24.896;2023-04-02T08:12:53;98651.88;;;15.82;72.81
8069;BME280;4077;43.702;24.896;2023-04-02T08:15:18;98621.06;;;15.64;73.04
8069;BME280;4077;43.702;24.896;2023-04-02T08:17:44;98646.44;;;15.92;73.49
8069;BME280;4077;43.702;24.896;2023-04-02T08:20:19;98642.59;;;16.08;71.65
8069;BME280;4077;43.702;24.896;2023-04-02T08:22:45;98643.69;;;15.98;70.52
8069;BME280;4077;43.702;24.896;2023-04-02T08:25:11;98637.19;;;15.80;72.28
8069;BME280;4077;43.702;24.896;2023-04-02T08:27:37;98643.03;;;15.90;72.97
8069;BME280;4077;43.702;24.896;2023-04-02T08:30:03;98649.22;;;15.84;72.82
8069;BME280;4077;43.702;24.896;2023-04-02T08:32:29;98653.50;;;15.86;71.08
8069;BME280;4077;43.702;24.896;2023-04-02T08:34:55;98656.66;;;16.01;74.26
8069;BME280;4077;43.702;24.896;2023-04-02T08:37:20;98650.31;;;16.11;72.41
8069;BME280;4077;43.702;24.896;2023-04-02T08:39:45;98650.59;;;16.34;72.50
8069;BME280;4077;43.702;24.896;2023-04-02T08:47:47;98655.47;;;16.47;70.06
8069;BME280;4077;43.702;24.896;2023-04-02T08:52:45;98644.63;;;16.63;69.35
8069;BME280;4077;43.702;24.896;2023-04-02T08:55:48;98652.47;;;16.96;69.17
8069;BME280;4077;43.702;24.896;2023-04-02T08:58:40;98655.38;;;16.85;69.10
8069;BME280;4077;43.702;24.896;2023-04-02T09:01:21;98659.06;;;17.08;70.28
8069;BME280;4077;43.702;24.896;2023-04-02T09:03:54;98662.06;;;16.95;66.57
8069;BME280;4077;43.702;24.896;2023-04-02T09:06:22;98660.13;;;17.02;66.24
8069;BME280;4077;43.702;24.896;2023-04-02T09:08:50;98663.94;;;17.20;67.23
8069;BME280;4077;43.702;24.896;2023-04-02T09:11:34;98671.31;;;17.37;65.48
8069;BME280;4077;43.702;24.896;2023-04-02T09:14:15;98666.38;;;17.26;68.50
8069;BME280;4077;43.702;24.896;2023-04-02T09:16:54;98677.78;;;17.22;65.53
8069;BME280;4077;43.702;24.896;2023-04-02T09:19:28;98669.44;;;17.40;66.24
8069;BME280;4077;43.702;24.896;2023-04-02T09:24:30;98680.88;;;17.66;66.38
8069;BME280;4077;43.702;24.896;2023-04-02T09:26:55;98686.63;;;17.47;63.52
8069;BME280;4077;43.702;24.896;2023-04-02T09:29:38;98683.81;;;17.85;65.88
8069;BME280;4077;43.702;24.896;2023-04-02T09:34:42;98690.28;;;17.70;64.44
8069;BME280;4077;43.702;24.896;2023-04-02T09:37:13;98708.84;;;17.90;61.34
8069;BME280;4077;43.702;24.896;2023-04-02T09:39:40;98697.66;;;18.15;60.97
8069;BME280;4077;43.702;24.896;2023-04-02T09:42:32;98696.28;;;18.29;59.29
8069;BME280;4077;43.702;24.896;2023-04-02T09:45:19;98693.28;;;18.15;57.50
8069;BME280;4077;43.702;24.896;2023-04-02T09:47:45;98678.09;;;17.72;59.25
8069;BME280;4077;43.702;24.896;2023-04-02T09:52:46;98684.84;;;17.79;61.70
8069;BME280;4077;43.702;24.896;2023-04-02T09:57:44;98684.75;;;17.82;60.44
8069;BME280;4077;43.702;24.896;2023-04-02T10:02:38;98695.63;;;18.23;60.67
8069;BME280;4077;43.702;24.896;2023-04-02T10:05:05;98693.19;;;17.90;61.06
8069;BME280;4077;43.702;24.896;2023-04-02T10:07:36;98703.44;;;17.96;62.17
8069;BME280;4077;43.702;24.896;2023-04-02T10:12:40;98703.06;;;18.09;62.10
8069;BME280;4077;43.702;24.896;2023-04-02T10:15:14;98702.06;;;17.55;62.55
8069;BME280;4077;43.702;24.896;2023-04-02T10:17:41;98703.19;;;17.76;62.13
8069;BME280;4077;43.702;24.896;2023-04-02T10:20:16;98693.00;;;17.96;62.41
8069;BME280;4077;43.702;24.896;2023-04-02T10:22:45;98702.59;;;17.96;60.68
8069;BME280;4077;43.702;24.896;2023-04-02T10:25:14;98701.38;;;18.08;60.41
8069;BME280;4077;43.702;24.896;2023-04-02T10:27:48;98700.91;;;18.21;60.29
8069;BME280;4077;43.702;24.896;2023-04-02T10:30:22;98701.38;;;18.08;56.72
8069;BME280;4077;43.702;24.896;2023-04-02T10:33:04;98701.25;;;18.11;55.55
8069;BME280;4077;43.702;24.896;2023-04-02T10:40:35;98695.75;;;18.73;55.34
8069;BME280;4077;43.702;24.896;2023-04-02T10:49:15;98686.16;;;18.20;55.16
8069;BME280;4077;43.702;24.896;2023-04-02T10:51:52;98691.38;;;18.20;55.44
8069;BME280;4077;43.702;24.896;2023-04-02T10:57:12;98678.25;;;17.95;54.38
8069;BME280;4077;43.702;24.896;2023-04-02T10:59:51;98688.03;;;17.89;55.35
8069;BME280;4077;43.702;24.896;2023-04-02T11:02:25;98683.56;;;17.92;54.71
8069;BME280;4077;43.702;24.896;2023-04-02T11:04:52;98688.44;;;18.03;55.65
8069;BME280;4077;43.702;24.896;2023-04-02T11:07:23;98681.31;;;18.08;55.44
8069;BME280;4077;43.702;24.896;2023-04-02T11:09:54;98691.38;;;18.20;54.50
8069;BME280;4077;43.702;24.896;2023-04-02T11:12:24;98684.88;;;18.32;53.90
8069;BME280;4077;43.702;24.896;2023-04-02T11:14:52;98679.75;;;18.02;55.24
8069;BME280;4077;43.702;24.896;2023-04-02T11:17:19;98671.63;;;17.84;55.25
8069;BME280;4077;43.702;24.896;2023-04-02T11:19:45;98671.41;;;17.62;54.91
8069;BME280;4077;43.702;24.896;2023-04-02T11:22:20;98676.28;;;17.44;54.39
8069;BME280;4077;43.702;24.896;2023-04-02T11:24:51;98676.13;;;17.50;54.89
8069;BME280;4077;43.702;24.896;2023-04-02T11:27:21;98684.41;;;17.63;53.09
8069;BME280;4077;43.702;24.896;2023-04-02T11:32:46;98672.47;;;17.84;52.62
8069;BME280;4077;43.702;24.896;2023-04-02T11:37:52;98663.66;;;17.88;53.32
8069;BME280;4077;43.702;24.896;2023-04-02T11:48:41;98669.16;;;18.07;52.92
8069;BME280;4077;43.702;24.896;2023-04-02T11:53:45;98673.97;;;17.93;52.96
8069;BME280;4077;43.702;24.896;2023-04-02T11:59:03;98669.75;;;17.89;52.78
8069;BME280;4077;43.702;24.896;2023-04-02T12:09:54;98659.16;;;17.93;52.92
8069;BME280;4077;43.702;24.896;2023-04-02T12:12:39;98660.16;;;18.16;53.27
8069;BME280;4077;43.702;24.896;2023-04-02T12:15:07;98661.53;;;18.27;51.65
8069;BME280;4077;43.702;24.896;2023-04-02T12:17:52;98665.59;;;18.36;52.00
8069;BME280;4077;43.702;24.896;2023-04-02T12:20:21;98658.94;;;18.27;51.25
8069;BME280;4077;43.702;24.896;2023-04-02T12:22:52;98650.03;;;18.33;50.17
8069;BME280;4077;43.702;24.896;2023-04-02T12:25:30;98654.94;;;18.69;51.52
8069;BME280;4077;43.702;24.896;2023-04-02T12:28:14;98648.59;;;18.49;52.43
8069;BME280;4077;43.702;24.896;2023-04-02T12:30:47;98643.44;;;18.48;52.66
8069;BME280;4077;43.702;24.896;2023-04-02T12:33:25;98652.19;;;18.47;53.09
8069;BME280;4077;43.702;24.896;2023-04-02T12:35:56;98653.44;;;18.35;51.67
8069;BME280;4077;43.702;24.896;2023-04-02T12:38:29;98652.03;;;18.25;51.33
8069;BME280;4077;43.702;24.896;2023-04-02T12:41:00;98652.03;;;18.25;51.32
8069;BME280;4077;43.702;24.896;2023-04-02T12:43:30;98647.13;;;18.16;51.81
8069;BME280;4077;43.702;24.896;2023-04-02T12:46:06;98648.00;;;17.88;51.13
8069;BME280;4077;43.702;24.896;2023-04-02T12:48:33;98636.47;;;17.95;52.75
8069;BME280;4077;43.702;24.896;2023-04-02T12:51:00;98623.06;;;17.80;52.27
8069;BME280;4077;43.702;24.896;2023-04-02T12:55:55;98617.16;;;17.73;53.77
8069;BME280;4077;43.702;24.896;2023-04-02T12:58:32;98637.75;;;17.82;53.88
8069;BME280;4077;43.702;24.896;2023-04-02T13:01:20;98635.91;;;17.86;53.86
8069;BME280;4077;43.702;24.896;2023-04-02T13:06:28;98633.53;;;17.48;53.97
8069;BME280;4077;43.702;24.896;2023-04-02T13:08:55;98638.94;;;17.42;54.45
8069;BME280;4077;43.702;24.896;2023-04-02T13:11:22;98637.53;;;17.32;54.55
8069;BME280;4077;43.702;24.896;2023-04-02T13:13:48;98642.72;;;17.32;53.65
8069;BME280;4077;43.702;24.896;2023-04-02T13:18:41;98643.53;;;17.34;52.46
8069;BME280;4077;43.702;24.896;2023-04-02T13:23:42;98645.34;;;17.32;52.49
8069;BME280;4077;43.702;24.896;2023-04-02T13:26:32;98651.47;;;17.31;51.81
8069;BME280;4077;43.702;24.896;2023-04-02T13:31:27;98641.66;;;17.39;51.77
8069;BME280;4077;43.702;24.896;2023-04-02T13:33:53;98647.66;;;17.41;53.22
8069;BME280;4077;43.702;24.896;2023-04-02T13:36:19;98644.78;;;17.22;52.66
8069;BME280;4077;43.702;24.896;2023-04-02T13:38:45;98636.16;;;17.19;53.06
8069;BME280;4077;43.702;24.896;2023-04-02T13:41:23;98647.38;;;17.22;52.98
8069;BME280;4077;43.702;24.896;2023-04-02T13:43:57;98646.81;;;17.41;53.22
8069;BME280;4077;43.702;24.896;2023-04-02T13:46:27;98647.22;;;17.27;52.08
8069;BME280;4077;43.702;24.896;2023-04-02T13:48:53;98643.88;;;17.23;52.04
8069;BME280;4077;43.702;24.896;2023-04-02T13:51:22;98650.09;;;17.18;52.05
8069;BME280;4077;43.702;24.896;2023-04-02T13:53:52;98650.00;;;17.22;51.98
8069;BME280;4077;43.702;24.896;2023-04-02T13:56:18;98636.28;;;17.14;51.88
8069;BME280;4077;43.702;24.896;2023-04-02T13:58:44;98636.94;;;17.22;52.32
8069;BME280;4077;43.702;24.896;2023-04-02T14:01:10;98644.78;;;17.21;52.13
8069;BME280;4077;43.702;24.896;2023-04-02T14:03:36;98647.31;;;17.24;52.48
8069;BME280;4077;43.702;24.896;2023-04-02T14:11:39;98645.00;;;17.43;51.72
8069;BME280;4077;43.702;24.896;2023-04-02T14:22:43;98642.19;;;17.50;50.94
8069;BME280;4077;43.702;24.896;2023-04-02T14:33:39;98649.00;;;17.55;50.96
8069;BME280;4077;43.702;24.896;2023-04-02T14:36:18;98645.56;;;17.54;51.06
8069;BME280;4077;43.702;24.896;2023-04-02T14:38:59;98650.94;;;17.48;50.55
8069;BME280;4077;43.702;24.896;2023-04-02T14:41:45;98626.19;;;17.33;50.40
8069;BME280;4077;43.702;24.896;2023-04-02T14:44:12;98644.38;;;17.35;50.12
8069;BME280;4077;43.702;24.896;2023-04-02T14:46:38;98642.06;;;17.26;50.40
8069;BME280;4077;43.702;24.896;2023-04-02T14:49:31;98624.19;;;17.12;50.94
8069;BME280;4077;43.702;24.896;2023-04-02T14:52:02;98631.91;;;17.15;50.41
8069;BME280;4077;43.702;24.896;2023-04-02T14:54:52;98638.78;;;17.19;50.29
8069;BME280;4077;43.702;24.896;2023-04-02T15:00:25;98638.38;;;17.33;50.68
8069;BME280;4077;43.702;24.896;2023-04-02T15:03:04;98639.59;;;17.49;51.07
8069;BME280;4077;43.702;24.896;2023-04-02T15:05:50;98650.53;;;17.62;50.58
8069;BME280;4077;43.702;24.896;2023-04-02T15:08:21;98638.75;;;17.48;49.17
8069;BME280;4077;43.702;24.896;2023-04-02T15:13:20;98655.84;;;17.59;49.56
8069;BME280;4077;43.702;24.896;2023-04-02T15:15:51;98647.84;;;17.35;49.72
8069;BME280;4077;43.702;24.896;2023-04-02T15:18:20;98655.03;;;17.27;49.31
8069;BME280;4077;43.702;24.896;2023-04-02T15:21:04;98653.44;;;17.23;49.46
8069;BME280;4077;43.702;24.896;2023-04-02T15:23:42;98652.44;;;17.27;49.87
8069;BME280;4077;43.702;24.896;2023-04-02T15:31:25;98658.84;;;17.17;49.85
8069;BME280;4077;43.702;24.896;2023-04-02T15:37:06;98658.22;;;17.09;50.68
8069;BME280;4077;43.702;24.896;2023-04-02T15:42:21;98656.63;;;17.02;51.00
8069;BME280;4077;43.702;24.896;2023-04-02T15:53:10;98654.41;;;16.89;51.22
8069;BME280;4077;43.702;24.896;2023-04-02T15:56:19;98660.56;;;16.85;51.02
8069;BME280;4077;43.702;24.896;2023-04-02T16:04:20;98658.28;;;16.73;51.71
8069;BME280;4077;43.702;24.896;2023-04-02T16:10:17;98674.25;;;16.61;50.37
8069;BME280;4077;43.702;24.896;2023-04-02T16:12:45;98678.56;;;16.62;51.13
8069;BME280;4077;43.702;24.896;2023-04-02T16:15:16;98672.50;;;16.60;50.80
8069;BME280;4077;43.702;24.896;2023-04-02T16:17:52;98669.34;;;16.49;50.46
8069;BME280;4077;43.702;24.896;2023-04-02T16:20:31;98682.44;;;16.46;50.64
8069;BME280;4077;43.702;24.896;2023-04-02T16:23:02;98667.13;;;16.33;51.46
8069;BME280;4077;43.702;24.896;2023-04-02T16:25:43;98688.53;;;16.45;51.29
8069;BME280;4077;43.702;24.896;2023-04-02T16:28:39;98687.78;;;16.41;50.92
8069;BME280;4077;43.702;24.896;2023-04-02T16:39:02;98700.34;;;16.24;52.92
8069;BME280;4077;43.702;24.896;2023-04-02T16:50:05;98693.84;;;15.67;55.78
8069;BME280;4077;43.702;24.896;2023-04-02T16:53:00;98680.44;;;15.44;56.67
8069;BME280;4077;43.702;24.896;2023-04-02T16:58:41;98678.41;;;15.18;57.97
8069;BME280;4077;43.702;24.896;2023-04-02T17:11:21;98684.03;;;14.47;61.54
8069;BME280;4077;43.702;24.896;2023-04-02T17:16:49;98683.34;;;14.36;61.09
8069;BME280;4077;43.702;24.896;2023-04-02T17:19:16;98687.75;;;14.31;61.89
8069;BME280;4077;43.702;24.896;2023-04-02T17:21:47;98696.47;;;14.27;62.78
8069;BME280;4077;43.702;24.896;2023-04-02T17:26:44;98688.06;;;14.11;64.68
8069;BME280;4077;43.702;24.896;2023-04-02T17:29:26;98698.56;;;14.03;65.38
8069;BME280;4077;43.702;24.896;2023-04-02T17:31:57;98686.81;;;13.81;67.03
8069;BME280;4077;43.702;24.896;2023-04-02T17:34:23;98704.16;;;13.76;69.40
8069;BME280;4077;43.702;24.896;2023-04-02T17:50:51;98720.41;;;13.21;78.14
8069;BME280;4077;43.702;24.896;2023-04-02T17:56:49;98724.09;;;12.97;81.02
8069;BME280;4077;43.702;24.896;2023-04-02T18:02:33;98731.22;;;12.76;84.67
8069;BME280;4077;43.702;24.896;2023-04-02T18:08:02;98742.50;;;12.69;85.02
8069;BME280;4077;43.702;24.896;2023-04-02T18:10:40;98733.09;;;12.60;86.56
8069;BME280;4077;43.702;24.896;2023-04-02T18:16:05;98745.84;;;12.80;85.97
8069;BME280;4077;43.702;24.896;2023-04-02T18:21:45;98757.06;;;12.84;90.25
8069;BME280;4077;43.702;24.896;2023-04-02T18:38:45;98781.19;;;12.86;90.07
8069;BME280;4077;43.702;24.896;2023-04-02T18:41:35;98774.31;;;12.85;89.28
8069;BME280;4077;43.702;24.896;2023-04-02T18:44:49;98784.75;;;12.74;89.80
8069;BME280;4077;43.702;24.896;2023-04-02T18:52:34;98789.16;;;12.62;92.18